AND weather

Anderson Regional Airport
Anderson, South Carolina, United States

Public forecast

Using degrees Fahrenheit for public forecast. Weather courtesy of forecast.io.

METAR (pilot weather report)

Retrieved 2019/05/27 11:56 UTC (53 minutes ago):

KAND 271156Z AUTO 00000KT 10SM CLR 23/18 A3006 RMK AO2 SLP169 T02280178 10233 20183 53009

TAF (pilot weather forecast)

Retrieved 2019/05/27 12:30 UTC (19 minutes ago):

TAF KAND 271127Z 2712/2812 27003KT P6SM FEW180 FM271800 27010G15KT P6SM FEW070 FEW200 FM280000 28003KT P6SM FEW250